sensor_id;sensor_type;location;lat;lon;timestamp;temperature;humidity
20883;DHT22;10601;51.830;7.294;2022-07-15T00:02:23;14.40;99.90
20883;DHT22;10601;51.830;7.294;2022-07-15T00:04:49;14.30;99.90
20883;DHT22;10601;51.830;7.294;2022-07-15T00:07:15;14.30;99.90
20883;DHT22;10601;51.830;7.294;2022-07-15T00:09:41;14.20;99.90
20883;DHT22;10601;51.830;7.294;2022-07-15T00:12:26;14.20;99.90
20883;DHT22;10601;51.830;7.294;2022-07-15T00:14:53;14.20;99.90
20883;DHT22;10601;51.830;7.294;2022-07-15T00:17:19;14.10;99.90
20883;DHT22;10601;51.830;7.294;2022-07-15T00:19:46;14.10;99.90
20883;DHT22;10601;51.830;7.294;2022-07-15T00:22:12;14.10;99.90
20883;DHT22;10601;51.830;7.294;2022-07-15T00:24:39;14.00;99.90
20883;DHT22;10601;51.830;7.294;2022-07-15T00:27:05;14.00;99.90
20883;DHT22;10601;51.830;7.294;2022-07-15T00:29:31;14.00;99.90
20883;DHT22;10601;51.830;7.294;2022-07-15T00:31:58;14.00;99.90
20883;DHT22;10601;51.830;7.294;2022-07-15T00:34:24;14.00;99.90
20883;DHT22;10601;51.830;7.294;2022-07-15T00:36:50;14.00;99.90
20883;DHT22;10601;51.830;7.294;2022-07-15T00:39:16;14.10;99.90
20883;DHT22;10601;51.830;7.294;2022-07-15T00:41:43;14.10;99.90
20883;DHT22;10601;51.830;7.294;2022-07-15T00:44:10;14.10;99.90
20883;DHT22;10601;51.830;7.294;2022-07-15T00:46:37;14.10;99.90
20883;DHT22;10601;51.830;7.294;2022-07-15T00:49:06;14.00;99.90
20883;DHT22;10601;51.830;7.294;2022-07-15T00:51:44;14.00;99.90
20883;DHT22;10601;51.830;7.294;2022-07-15T00:54:12;13.90;99.90
20883;DHT22;10601;51.830;7.294;2022-07-15T00:56:48;13.90;99.90
20883;DHT22;10601;51.830;7.294;2022-07-15T00:59:15;13.80;99.90
20883;DHT22;10601;51.830;7.294;2022-07-15T01:01:42;13.70;99.90
20883;DHT22;10601;51.830;7.294;2022-07-15T01:04:09;13.70;99.90
20883;DHT22;10601;51.830;7.294;2022-07-15T01:06:37;13.60;99.90
20883;DHT22;10601;51.830;7.294;2022-07-15T01:09:03;13.60;99.90
20883;DHT22;10601;51.830;7.294;2022-07-15T01:11:29;13.50;99.90
20883;DHT22;10601;51.830;7.294;2022-07-15T01:13:57;13.50;99.90
20883;DHT22;10601;51.830;7.294;2022-07-15T01:16:25;13.40;99.90
20883;DHT22;10601;51.830;7.294;2022-07-15T01:18:51;13.40;99.90
20883;DHT22;10601;51.830;7.294;2022-07-15T01:21:17;13.40;99.90
20883;DHT22;10601;51.830;7.294;2022-07-15T01:23:44;13.30;99.90
20883;DHT22;10601;51.830;7.294;2022-07-15T01:26:10;13.30;99.90
20883;DHT22;10601;51.830;7.294;2022-07-15T01:28:37;13.20;99.90
20883;DHT22;10601;51.830;7.294;2022-07-15T01:31:04;13.10;99.90
20883;DHT22;10601;51.830;7.294;2022-07-15T01:33:31;13.10;99.90
20883;DHT22;10601;51.830;7.294;2022-07-15T01:35:58;13.00;99.90
20883;DHT22;10601;51.830;7.294;2022-07-15T01:38:25;13.00;99.90
20883;DHT22;10601;51.830;7.294;2022-07-15T01:40:52;12.90;99.90
20883;DHT22;10601;51.830;7.294;2022-07-15T01:43:18;12.90;99.90
20883;DHT22;10601;51.830;7.294;2022-07-15T01:45:45;12.80;99.90
20883;DHT22;10601;51.830;7.294;2022-07-15T01:48:12;12.80;99.90
20883;DHT22;10601;51.830;7.294;2022-07-15T01:50:58;12.80;99.90
20883;DHT22;10601;51.830;7.294;2022-07-15T01:53:26;12.70;99.90
20883;DHT22;10601;51.830;7.294;2022-07-15T01:55:53;12.70;99.90
20883;DHT22;10601;51.830;7.294;2022-07-15T01:58:19;12.60;99.90
20883;DHT22;10601;51.830;7.294;2022-07-15T02:00:46;12.60;99.90
20883;DHT22;10601;51.830;7.294;2022-07-15T02:03:12;12.60;99.90
20883;DHT22;10601;51.830;7.294;2022-07-15T02:05:38;12.60;99.90
20883;DHT22;10601;51.830;7.294;2022-07-15T02:08:05;12.60;99.90
20883;DHT22;10601;51.830;7.294;2022-07-15T02:10:31;12.60;99.90
20883;DHT22;10601;51.830;7.294;2022-07-15T02:13:08;12.50;99.90
20883;DHT22;10601;51.830;7.294;2022-07-15T02:15:34;12.50;99.90
20883;DHT22;10601;51.830;7.294;2022-07-15T02:18:00;12.40;99.90
20883;DHT22;10601;51.830;7.294;2022-07-15T02:20:27;12.40;99.90
20883;DHT22;10601;51.830;7.294;2022-07-15T02:22:54;12.40;99.90
20883;DHT22;10601;51.830;7.294;2022-07-15T02:25:24;12.40;99.90
20883;DHT22;10601;51.830;7.294;2022-07-15T02:27:58;12.40;99.90
20883;DHT22;10601;51.830;7.294;2022-07-15T02:30:40;12.30;99.90
20883;DHT22;10601;51.830;7.294;2022-07-15T02:33:06;12.30;99.90
20883;DHT22;10601;51.830;7.294;2022-07-15T02:35:33;12.30;99.90
20883;DHT22;10601;51.830;7.294;2022-07-15T02:37:59;12.20;99.90
20883;DHT22;10601;51.830;7.294;2022-07-15T02:40:26;12.20;99.90
20883;DHT22;10601;51.830;7.294;2022-07-15T02:42:54;12.10;99.90
20883;DHT22;10601;51.830;7.294;2022-07-15T02:45:23;12.10;99.90
20883;DHT22;10601;51.830;7.294;2022-07-15T02:47:50;12.10;99.90
20883;DHT22;10601;51.830;7.294;2022-07-15T02:50:17;12.00;99.90
20883;DHT22;10601;51.830;7.294;2022-07-15T02:52:43;12.00;99.90
20883;DHT22;10601;51.830;7.294;2022-07-15T02:55:10;12.00;99.90
20883;DHT22;10601;51.830;7.294;2022-07-15T02:57:37;11.90;99.90
20883;DHT22;10601;51.830;7.294;2022-07-15T03:00:05;11.90;99.90
20883;DHT22;10601;51.830;7.294;2022-07-15T03:02:32;11.90;99.90
20883;DHT22;10601;51.830;7.294;2022-07-15T03:04:58;11.90;99.90
20883;DHT22;10601;51.830;7.294;2022-07-15T03:07:24;11.90;99.90
20883;DHT22;10601;51.830;7.294;2022-07-15T03:09:50;11.90;99.90
20883;DHT22;10601;51.830;7.294;2022-07-15T03:12:16;11.90;99.90
20883;DHT22;10601;51.830;7.294;2022-07-15T03:14:42;11.80;99.90
20883;DHT22;10601;51.830;7.294;2022-07-15T03:17:08;11.80;99.90
20883;DHT22;10601;51.830;7.294;2022-07-15T03:19:34;11.80;99.90
20883;DHT22;10601;51.830;7.294;2022-07-15T03:22:00;11.70;99.90
20883;DHT22;10601;51.830;7.294;2022-07-15T03:24:26;11.70;99.90
20883;DHT22;10601;51.830;7.294;2022-07-15T03:26:52;11.70;99.90
20883;DHT22;10601;51.830;7.294;2022-07-15T03:29:19;11.70;99.90
20883;DHT22;10601;51.830;7.294;2022-07-15T03:31:46;11.60;99.90
20883;DHT22;10601;51.830;7.294;2022-07-15T03:34:12;11.60;99.90
20883;DHT22;10601;51.830;7.294;2022-07-15T03:36:39;11.60;99.90
20883;DHT22;10601;51.830;7.294;2022-07-15T03:39:07;11.60;99.90
20883;DHT22;10601;51.830;7.294;2022-07-15T03:41:34;11.60;99.90
20883;DHT22;10601;51.830;7.294;2022-07-15T03:44:03;11.50;99.90
20883;DHT22;10601;51.830;7.294;2022-07-15T03:46:29;11.50;99.90
20883;DHT22;10601;51.830;7.294;2022-07-15T03:48:56;11.50;99.90
20883;DHT22;10601;51.830;7.294;2022-07-15T03:51:23;11.50;99.90
20883;DHT22;10601;51.830;7.294;2022-07-15T03:53:58;11.50;99.90
20883;DHT22;10601;51.830;7.294;2022-07-15T03:56:25;11.60;99.90
20883;DHT22;10601;51.830;7.294;2022-07-15T03:58:51;11.50;99.90
20883;DHT22;10601;51.830;7.294;2022-07-15T04:01:17;11.60;99.90
20883;DHT22;10601;51.830;7.294;2022-07-15T04:03:44;11.60;99.90
20883;DHT22;10601;51.830;7.294;2022-07-15T04:06:10;11.70;99.90
20883;DHT22;10601;51.830;7.294;2022-07-15T04:08:36;11.70;99.90
20883;DHT22;10601;51.830;7.294;2022-07-15T04:11:02;11.70;99.90
20883;DHT22;10601;51.830;7.294;2022-07-15T04:13:28;11.70;99.90
20883;DHT22;10601;51.830;7.294;2022-07-15T04:15:54;11.80;99.90
20883;DHT22;10601;51.830;7.294;2022-07-15T04:18:20;11.80;99.90
20883;DHT22;10601;51.830;7.294;2022-07-15T04:20:46;11.90;99.90
20883;DHT22;10601;51.830;7.294;2022-07-15T04:23:13;12.20;99.90
20883;DHT22;10601;51.830;7.294;2022-07-15T04:25:39;12.40;99.90
20883;DHT22;10601;51.830;7.294;2022-07-15T04:28:05;12.90;99.90
20883;DHT22;10601;51.830;7.294;2022-07-15T04:30:32;13.30;99.90
20883;DHT22;10601;51.830;7.294;2022-07-15T04:32:59;13.70;99.90
20883;DHT22;10601;51.830;7.294;2022-07-15T04:35:26;14.10;99.90
20883;DHT22;10601;51.830;7.294;2022-07-15T04:37:52;14.50;99.90
20883;DHT22;10601;51.830;7.294;2022-07-15T04:40:18;14.90;99.90
20883;DHT22;10601;51.830;7.294;2022-07-15T04:42:44;15.30;99.90
20883;DHT22;10601;51.830;7.294;2022-07-15T04:45:11;15.60;99.90
20883;DHT22;10601;51.830;7.294;2022-07-15T04:47:37;15.80;99.90
20883;DHT22;10601;51.830;7.294;2022-07-15T04:50:03;15.80;99.90
20883;DHT22;10601;51.830;7.294;2022-07-15T04:52:48;15.70;99.90
20883;DHT22;10601;51.830;7.294;2022-07-15T04:55:14;15.60;99.90
20883;DHT22;10601;51.830;7.294;2022-07-15T04:57:41;15.40;99.90
20883;DHT22;10601;51.830;7.294;2022-07-15T05:00:08;15.30;99.90
20883;DHT22;10601;51.830;7.294;2022-07-15T05:02:35;15.10;99.90
20883;DHT22;10601;51.830;7.294;2022-07-15T05:05:02;15.00;99.90
20883;DHT22;10601;51.830;7.294;2022-07-15T05:07:28;15.00;99.90
20883;DHT22;10601;51.830;7.294;2022-07-15T05:09:54;15.10;99.90
20883;DHT22;10601;51.830;7.294;2022-07-15T05:12:20;15.30;99.90
20883;DHT22;10601;51.830;7.294;2022-07-15T05:14:46;15.30;99.90
20883;DHT22;10601;51.830;7.294;2022-07-15T05:17:12;15.40;99.90
20883;DHT22;10601;51.830;7.294;2022-07-15T05:19:38;15.60;99.90
20883;DHT22;10601;51.830;7.294;2022-07-15T05:22:05;15.70;99.90
20883;DHT22;10601;51.830;7.294;2022-07-15T05:24:31;15.90;99.90
20883;DHT22;10601;51.830;7.294;2022-07-15T05:26:57;16.00;99.90
20883;DHT22;10601;51.830;7.294;2022-07-15T05:29:25;16.00;96.10
20883;DHT22;10601;51.830;7.294;2022-07-15T05:31:52;16.10;96.00
20883;DHT22;10601;51.830;7.294;2022-07-15T05:34:18;16.10;97.00
20883;DHT22;10601;51.830;7.294;2022-07-15T05:36:44;16.00;95.00
20883;DHT22;10601;51.830;7.294;2022-07-15T05:39:10;15.90;98.10
20883;DHT22;10601;51.830;7.294;2022-07-15T05:41:37;15.90;99.90
20883;DHT22;10601;51.830;7.294;2022-07-15T05:44:03;16.00;99.90
20883;DHT22;10601;51.830;7.294;2022-07-15T05:46:29;16.10;99.50
20883;DHT22;10601;51.830;7.294;2022-07-15T05:48:55;16.30;92.40
20883;DHT22;10601;51.830;7.294;2022-07-15T05:51:21;16.30;85.10
20883;DHT22;10601;51.830;7.294;2022-07-15T05:53:47;16.40;78.20
20883;DHT22;10601;51.830;7.294;2022-07-15T05:56:13;16.50;68.40
20883;DHT22;10601;51.830;7.294;2022-07-15T05:58:39;16.60;59.60
20883;DHT22;10601;51.830;7.294;2022-07-15T06:01:05;17.00;59.80
20883;DHT22;10601;51.830;7.294;2022-07-15T06:03:32;17.60;35.30
20883;DHT22;10601;51.830;7.294;2022-07-15T06:05:58;18.30;23.90
20883;DHT22;10601;51.830;7.294;2022-07-15T06:08:24;18.70;11.30
20883;DHT22;10601;51.830;7.294;2022-07-15T06:10:50;19.00;7.10
20883;DHT22;10601;51.830;7.294;2022-07-15T06:13:16;19.20;3.10
20883;DHT22;10601;51.830;7.294;2022-07-15T06:15:43;19.40;1.00
20883;DHT22;10601;51.830;7.294;2022-07-15T06:18:09;19.40;1.00
20883;DHT22;10601;51.830;7.294;2022-07-15T06:20:35;19.20;1.00
20883;DHT22;10601;51.830;7.294;2022-07-15T06:23:02;19.10;1.00
20883;DHT22;10601;51.830;7.294;2022-07-15T06:25:28;19.70;1.00
20883;DHT22;10601;51.830;7.294;2022-07-15T06:27:54;20.90;3.40
20883;DHT22;10601;51.830;7.294;2022-07-15T06:30:20;21.90;31.70
20883;DHT22;10601;51.830;7.294;2022-07-15T06:32:46;23.00;50.80
20883;DHT22;10601;51.830;7.294;2022-07-15T06:35:12;24.00;48.30
20883;DHT22;10601;51.830;7.294;2022-07-15T06:37:38;24.60;59.10
20883;DHT22;10601;51.830;7.294;2022-07-15T06:40:05;25.00;70.60
20883;DHT22;10601;51.830;7.294;2022-07-15T06:42:32;25.30;85.10
20883;DHT22;10601;51.830;7.294;2022-07-15T06:44:58;25.90;94.70
20883;DHT22;10601;51.830;7.294;2022-07-15T06:47:24;26.60;92.60
20883;DHT22;10601;51.830;7.294;2022-07-15T06:49:50;27.30;64.30
20883;DHT22;10601;51.830;7.294;2022-07-15T06:52:16;28.00;38.00
20883;DHT22;10601;51.830;7.294;2022-07-15T06:54:43;27.60;41.40
20883;DHT22;10601;51.830;7.294;2022-07-15T06:57:09;26.50;41.50
20883;DHT22;10601;51.830;7.294;2022-07-15T06:59:35;25.90;55.50
20883;DHT22;10601;51.830;7.294;2022-07-15T07:02:02;25.70;28.80
20883;DHT22;10601;51.830;7.294;2022-07-15T07:04:28;25.90;28.40
20883;DHT22;10601;51.830;7.294;2022-07-15T07:06:54;26.80;35.30
20883;DHT22;10601;51.830;7.294;2022-07-15T07:09:20;27.50;22.30
20883;DHT22;10601;51.830;7.294;2022-07-15T07:11:46;28.20;46.00
20883;DHT22;10601;51.830;7.294;2022-07-15T07:14:12;28.90;39.50
20883;DHT22;10601;51.830;7.294;2022-07-15T07:16:39;29.00;19.40
20883;DHT22;10601;51.830;7.294;2022-07-15T07:19:05;29.40;37.40
20883;DHT22;10601;51.830;7.294;2022-07-15T07:21:31;29.20;40.60
20883;DHT22;10601;51.830;7.294;2022-07-15T07:23:58;28.60;47.20
20883;DHT22;10601;51.830;7.294;2022-07-15T07:26:24;28.70;33.50
20883;DHT22;10601;51.830;7.294;2022-07-15T07:28:50;29.50;52.40
20883;DHT22;10601;51.830;7.294;2022-07-15T07:31:17;30.00;34.50
20883;DHT22;10601;51.830;7.294;2022-07-15T07:33:43;29.70;22.10
20883;DHT22;10601;51.830;7.294;2022-07-15T07:36:09;29.70;27.70
20883;DHT22;10601;51.830;7.294;2022-07-15T07:38:37;29.70;16.50
20883;DHT22;10601;51.830;7.294;2022-07-15T07:41:03;29.00;2.50
20883;DHT22;10601;51.830;7.294;2022-07-15T07:43:29;28.50;14.70
20883;DHT22;10601;51.830;7.294;2022-07-15T07:45:55;27.20;4.20
20883;DHT22;10601;51.830;7.294;2022-07-15T07:48:22;25.90;4.70
20883;DHT22;10601;51.830;7.294;2022-07-15T07:50:48;26.00;1.00
20883;DHT22;10601;51.830;7.294;2022-07-15T07:53:14;26.70;1.00
20883;DHT22;10601;51.830;7.294;2022-07-15T07:55:40;27.90;1.00
20883;DHT22;10601;51.830;7.294;2022-07-15T07:58:07;29.20;1.00
20883;DHT22;10601;51.830;7.294;2022-07-15T08:00:34;30.10;1.00
20883;DHT22;10601;51.830;7.294;2022-07-15T08:03:01;31.30;1.00
20883;DHT22;10601;51.830;7.294;2022-07-15T08:05:27;32.10;1.00
20883;DHT22;10601;51.830;7.294;2022-07-15T08:08:17;32.60;1.00
20883;DHT22;10601;51.830;7.294;2022-07-15T08:10:47;31.60;6.70
20883;DHT22;10601;51.830;7.294;2022-07-15T08:13:15;30.40;1.00
20883;DHT22;10601;51.830;7.294;2022-07-15T08:15:42;29.50;1.00
20883;DHT22;10601;51.830;7.294;2022-07-15T08:18:08;28.70;1.00
20883;DHT22;10601;51.830;7.294;2022-07-15T08:20:35;27.80;1.00
20883;DHT22;10601;51.830;7.294;2022-07-15T08:23:02;27.20;1.00
20883;DHT22;10601;51.830;7.294;2022-07-15T08:25:31;26.90;1.00
20883;DHT22;10601;51.830;7.294;2022-07-15T08:27:59;26.80;1.00
20883;DHT22;10601;51.830;7.294;2022-07-15T08:30:26;26.60;1.00
20883;DHT22;10601;51.830;7.294;2022-07-15T08:32:53;26.00;1.00
20883;DHT22;10601;51.830;7.294;2022-07-15T08:35:21;25.20;1.00
20883;DHT22;10601;51.830;7.294;2022-07-15T08:37:47;25.80;1.00
20883;DHT22;10601;51.830;7.294;2022-07-15T08:40:15;27.20;1.00
20883;DHT22;10601;51.830;7.294;2022-07-15T08:42:42;28.20;1.00
20883;DHT22;10601;51.830;7.294;2022-07-15T08:45:13;28.30;1.00
20883;DHT22;10601;51.830;7.294;2022-07-15T08:47:41;28.10;1.00
20883;DHT22;10601;51.830;7.294;2022-07-15T08:50:09;27.90;1.00
20883;DHT22;10601;51.830;7.294;2022-07-15T08:52:38;27.40;1.00
20883;DHT22;10601;51.830;7.294;2022-07-15T08:55:05;26.50;1.00
20883;DHT22;10601;51.830;7.294;2022-07-15T08:57:33;27.00;1.00
20883;DHT22;10601;51.830;7.294;2022-07-15T08:59:59;27.70;1.00
20883;DHT22;10601;51.830;7.294;2022-07-15T09:02:25;27.20;1.00
20883;DHT22;10601;51.830;7.294;2022-07-15T09:10:45;28.60;1.00
20883;DHT22;10601;51.830;7.294;2022-07-15T09:15:49;31.30;1.00
20883;DHT22;10601;51.830;7.294;2022-07-15T09:18:20;32.50;1.00
20883;DHT22;10601;51.830;7.294;2022-07-15T09:20:47;32.80;1.00
20883;DHT22;10601;51.830;7.294;2022-07-15T09:23:20;32.70;1.00
20883;DHT22;10601;51.830;7.294;2022-07-15T09:25:48;33.30;1.00
20883;DHT22;10601;51.830;7.294;2022-07-15T09:28:16;34.60;1.00
20883;DHT22;10601;51.830;7.294;2022-07-15T09:30:45;35.00;1.00
20883;DHT22;10601;51.830;7.294;2022-07-15T09:33:32;34.40;1.00
20883;DHT22;10601;51.830;7.294;2022-07-15T09:38:49;31.80;1.00
20883;DHT22;10601;51.830;7.294;2022-07-15T09:46:23;34.30;1.00
20883;DHT22;10601;51.830;7.294;2022-07-15T09:48:51;34.60;1.00
20883;DHT22;10601;51.830;7.294;2022-07-15T09:51:18;33.60;1.00
20883;DHT22;10601;51.830;7.294;2022-07-15T09:53:45;31.80;1.00
20883;DHT22;10601;51.830;7.294;2022-07-15T09:56:17;30.70;1.00
20883;DHT22;10601;51.830;7.294;2022-07-15T09:58:47;29.70;1.00
20883;DHT22;10601;51.830;7.294;2022-07-15T10:01:14;30.10;1.00
20883;DHT22;10601;51.830;7.294;2022-07-15T10:03:40;30.70;1.00
20883;DHT22;10601;51.830;7.294;2022-07-15T10:06:07;31.90;1.00
20883;DHT22;10601;51.830;7.294;2022-07-15T10:08:35;32.60;1.00
20883;DHT22;10601;51.830;7.294;2022-07-15T10:11:07;32.00;1.00
20883;DHT22;10601;51.830;7.294;2022-07-15T10:19:23;30.70;1.00
20883;DHT22;10601;51.830;7.294;2022-07-15T10:24:55;30.70;1.00
20883;DHT22;10601;51.830;7.294;2022-07-15T10:27:44;30.00;1.00
20883;DHT22;10601;51.830;7.294;2022-07-15T10:30:09;29.10;1.00
20883;DHT22;10601;51.830;7.294;2022-07-15T10:33:27;28.10;1.00
20883;DHT22;10601;51.830;7.294;2022-07-15T10:38:27;26.50;1.00
20883;DHT22;10601;51.830;7.294;2022-07-15T10:41:03;26.50;1.00
20883;DHT22;10601;51.830;7.294;2022-07-15T10:46:20;27.00;1.00
20883;DHT22;10601;51.830;7.294;2022-07-15T10:49:36;27.30;1.00
20883;DHT22;10601;51.830;7.294;2022-07-15T10:54:08;27.50;1.00
20883;DHT22;10601;51.830;7.294;2022-07-15T10:56:37;27.10;1.00
20883;DHT22;10601;51.830;7.294;2022-07-15T10:59:13;26.90;1.00
20883;DHT22;10601;51.830;7.294;2022-07-15T11:01:48;27.30;1.00
20883;DHT22;10601;51.830;7.294;2022-07-15T11:09:54;29.90;1.00
20883;DHT22;10601;51.830;7.294;2022-07-15T11:15:13;29.60;1.00
20883;DHT22;10601;51.830;7.294;2022-07-15T11:17:47;29.90;1.00
20883;DHT22;10601;51.830;7.294;2022-07-15T11:20:25;30.30;1.00
20883;DHT22;10601;51.830;7.294;2022-07-15T11:22:54;29.50;1.00
20883;DHT22;10601;51.830;7.294;2022-07-15T11:25:30;28.50;1.00
20883;DHT22;10601;51.830;7.294;2022-07-15T11:28:13;28.00;1.00
20883;DHT22;10601;51.830;7.294;2022-07-15T11:30:48;27.80;1.00
20883;DHT22;10601;51.830;7.294;2022-07-15T11:33:21;26.90;1.00
20883;DHT22;10601;51.830;7.294;2022-07-15T11:35:57;26.70;1.00
20883;DHT22;10601;51.830;7.294;2022-07-15T11:38:29;26.80;1.00
20883;DHT22;10601;51.830;7.294;2022-07-15T11:40:58;26.80;1.00
20883;DHT22;10601;51.830;7.294;2022-07-15T11:43:43;26.80;1.00
20883;DHT22;10601;51.830;7.294;2022-07-15T11:46:30;26.50;1.00
20883;DHT22;10601;51.830;7.294;2022-07-15T11:48:58;26.60;1.00
20883;DHT22;10601;51.830;7.294;2022-07-15T11:51:26;26.80;1.00
20883;DHT22;10601;51.830;7.294;2022-07-15T11:53:54;27.60;1.00
20883;DHT22;10601;51.830;7.294;2022-07-15T11:56:21;29.20;1.00
20883;DHT22;10601;51.830;7.294;2022-07-15T11:58:53;30.30;1.00
20883;DHT22;10601;51.830;7.294;2022-07-15T12:01:22;31.20;1.00
20883;DHT22;10601;51.830;7.294;2022-07-15T12:03:52;32.40;1.00
20883;DHT22;10601;51.830;7.294;2022-07-15T12:06:21;33.60;1.00
20883;DHT22;10601;51.830;7.294;2022-07-15T12:08:55;33.80;1.00
20883;DHT22;10601;51.830;7.294;2022-07-15T12:11:30;32.40;1.00
20883;DHT22;10601;51.830;7.294;2022-07-15T12:14:12;32.30;1.00
20883;DHT22;10601;51.830;7.294;2022-07-15T12:16:45;33.00;1.00
20883;DHT22;10601;51.830;7.294;2022-07-15T12:19:20;33.10;1.00
20883;DHT22;10601;51.830;7.294;2022-07-15T12:21:49;33.10;1.00
20883;DHT22;10601;51.830;7.294;2022-07-15T12:24:18;32.30;1.00
20883;DHT22;10601;51.830;7.294;2022-07-15T12:29:21;30.70;1.00
20883;DHT22;10601;51.830;7.294;2022-07-15T12:32:08;30.20;1.00
20883;DHT22;10601;51.830;7.294;2022-07-15T12:37:13;28.80;1.00
20883;DHT22;10601;51.830;7.294;2022-07-15T12:40:05;28.00;1.00
20883;DHT22;10601;51.830;7.294;2022-07-15T12:42:38;28.40;1.00
20883;DHT22;10601;51.830;7.294;2022-07-15T12:50:30;27.80;1.00
20883;DHT22;10601;51.830;7.294;2022-07-15T12:52:56;27.60;1.00
20883;DHT22;10601;51.830;7.294;2022-07-15T12:55:30;27.10;1.00
20883;DHT22;10601;51.830;7.294;2022-07-15T12:58:14;26.50;1.00
20883;DHT22;10601;51.830;7.294;2022-07-15T13:00:42;26.50;1.00
20883;DHT22;10601;51.830;7.294;2022-07-15T13:03:20;27.20;1.00
20883;DHT22;10601;51.830;7.294;2022-07-15T13:05:48;28.10;1.00
20883;DHT22;10601;51.830;7.294;2022-07-15T13:08:20;29.30;1.00
20883;DHT22;10601;51.830;7.294;2022-07-15T13:10:49;29.80;1.00
20883;DHT22;10601;51.830;7.294;2022-07-15T13:13:18;29.70;1.00
20883;DHT22;10601;51.830;7.294;2022-07-15T13:15:45;29.20;1.00
20883;DHT22;10601;51.830;7.294;2022-07-15T13:18:13;29.40;1.00
20883;DHT22;10601;51.830;7.294;2022-07-15T13:20:40;29.70;1.00
20883;DHT22;10601;51.830;7.294;2022-07-15T13:23:07;29.20;1.00
20883;DHT22;10601;51.830;7.294;2022-07-15T13:25:33;28.20;1.00
20883;DHT22;10601;51.830;7.294;2022-07-15T13:28:03;27.60;1.00
20883;DHT22;10601;51.830;7.294;2022-07-15T13:30:29;27.20;1.00
20883;DHT22;10601;51.830;7.294;2022-07-15T13:32:56;26.90;1.00
20883;DHT22;10601;51.830;7.294;2022-07-15T13:35:22;26.80;1.00
20883;DHT22;10601;51.830;7.294;2022-07-15T13:37:48;26.90;1.00
20883;DHT22;10601;51.830;7.294;2022-07-15T13:40:14;26.90;1.00
20883;DHT22;10601;51.830;7.294;2022-07-15T13:42:41;27.00;1.00
20883;DHT22;10601;51.830;7.294;2022-07-15T13:45:08;27.10;1.00
20883;DHT22;10601;51.830;7.294;2022-07-15T13:47:35;27.30;1.00
20883;DHT22;10601;51.830;7.294;2022-07-15T13:50:02;27.30;1.00
20883;DHT22;10601;51.830;7.294;2022-07-15T13:52:51;27.10;1.00
20883;DHT22;10601;51.830;7.294;2022-07-15T13:55:19;26.90;1.00
20883;DHT22;10601;51.830;7.294;2022-07-15T13:57:45;26.70;1.00
20883;DHT22;10601;51.830;7.294;2022-07-15T14:00:15;26.50;1.00
20883;DHT22;10601;51.830;7.294;2022-07-15T14:02:43;26.30;1.00
20883;DHT22;10601;51.830;7.294;2022-07-15T14:05:11;25.80;1.00
20883;DHT22;10601;51.830;7.294;2022-07-15T14:07:37;25.30;1.00
20883;DHT22;10601;51.830;7.294;2022-07-15T14:10:05;25.20;1.00
20883;DHT22;10601;51.830;7.294;2022-07-15T14:12:31;25.00;1.00
20883;DHT22;10601;51.830;7.294;2022-07-15T14:14:57;25.10;1.00
20883;DHT22;10601;51.830;7.294;2022-07-15T14:17:23;25.20;1.00
20883;DHT22;10601;51.830;7.294;2022-07-15T14:19:49;25.30;1.00
20883;DHT22;10601;51.830;7.294;2022-07-15T14:22:16;25.40;1.00
20883;DHT22;10601;51.830;7.294;2022-07-15T14:24:42;25.60;1.00
20883;DHT22;10601;51.830;7.294;2022-07-15T14:27:09;25.70;1.00
20883;DHT22;10601;51.830;7.294;2022-07-15T14:29:35;25.80;1.00
20883;DHT22;10601;51.830;7.294;2022-07-15T14:32:01;26.00;1.00
20883;DHT22;10601;51.830;7.294;2022-07-15T14:34:27;26.00;1.00
20883;DHT22;10601;51.830;7.294;2022-07-15T14:36:53;26.00;1.00
20883;DHT22;10601;51.830;7.294;2022-07-15T14:39:19;26.10;1.00
20883;DHT22;10601;51.830;7.294;2022-07-15T14:41:45;26.30;1.00
20883;DHT22;10601;51.830;7.294;2022-07-15T14:44:11;26.60;1.00
20883;DHT22;10601;51.830;7.294;2022-07-15T14:46:37;26.80;1.00
20883;DHT22;10601;51.830;7.294;2022-07-15T14:49:03;26.60;1.00
20883;DHT22;10601;51.830;7.294;2022-07-15T14:51:30;26.50;1.00
20883;DHT22;10601;51.830;7.294;2022-07-15T14:53:56;26.50;1.00
20883;DHT22;10601;51.830;7.294;2022-07-15T14:56:22;26.20;1.00
20883;DHT22;10601;51.830;7.294;2022-07-15T14:58:48;26.10;1.00
20883;DHT22;10601;51.830;7.294;2022-07-15T15:01:14;26.10;1.00
20883;DHT22;10601;51.830;7.294;2022-07-15T15:03:40;26.00;1.00
20883;DHT22;10601;51.830;7.294;2022-07-15T15:06:06;26.10;1.00
20883;DHT22;10601;51.830;7.294;2022-07-15T15:08:32;26.20;1.00
20883;DHT22;10601;51.830;7.294;2022-07-15T15:10:58;26.00;1.00
20883;DHT22;10601;51.830;7.294;2022-07-15T15:13:24;25.60;1.00
20883;DHT22;10601;51.830;7.294;2022-07-15T15:15:50;25.40;1.00
20883;DHT22;10601;51.830;7.294;2022-07-15T15:18:16;25.30;1.00
20883;DHT22;10601;51.830;7.294;2022-07-15T15:20:42;25.30;1.00
20883;DHT22;10601;51.830;7.294;2022-07-15T15:23:09;25.10;1.00
20883;DHT22;10601;51.830;7.294;2022-07-15T15:25:35;25.10;1.00
20883;DHT22;10601;51.830;7.294;2022-07-15T15:28:19;25.10;1.00
20883;DHT22;10601;51.830;7.294;2022-07-15T15:30:45;25.10;1.00
20883;DHT22;10601;51.830;7.294;2022-07-15T15:33:11;25.20;1.00
20883;DHT22;10601;51.830;7.294;2022-07-15T15:35:38;25.30;1.00
20883;DHT22;10601;51.830;7.294;2022-07-15T15:38:04;25.50;1.00
20883;DHT22;10601;51.830;7.294;2022-07-15T15:40:30;25.40;1.00
20883;DHT22;10601;51.830;7.294;2022-07-15T15:42:56;25.20;1.00
20883;DHT22;10601;51.830;7.294;2022-07-15T15:45:22;24.90;1.00
20883;DHT22;10601;51.830;7.294;2022-07-15T15:47:49;24.60;1.00
20883;DHT22;10601;51.830;7.294;2022-07-15T15:50:15;24.40;1.00
20883;DHT22;10601;51.830;7.294;2022-07-15T15:52:43;24.40;1.00
20883;DHT22;10601;51.830;7.294;2022-07-15T15:55:09;24.40;1.00
20883;DHT22;10601;51.830;7.294;2022-07-15T15:57:35;24.20;1.00
20883;DHT22;10601;51.830;7.294;2022-07-15T16:00:04;24.20;1.00
20883;DHT22;10601;51.830;7.294;2022-07-15T16:02:31;24.10;1.00
20883;DHT22;10601;51.830;7.294;2022-07-15T16:04:57;24.20;1.00
20883;DHT22;10601;51.830;7.294;2022-07-15T16:07:23;24.10;1.00
20883;DHT22;10601;51.830;7.294;2022-07-15T16:09:49;24.10;1.00
20883;DHT22;10601;51.830;7.294;2022-07-15T16:12:15;24.00;1.00
20883;DHT22;10601;51.830;7.294;2022-07-15T16:14:41;24.00;1.00
20883;DHT22;10601;51.830;7.294;2022-07-15T16:17:07;23.90;1.00
20883;DHT22;10601;51.830;7.294;2022-07-15T16:19:33;23.90;1.00
20883;DHT22;10601;51.830;7.294;2022-07-15T16:21:59;23.90;1.00
20883;DHT22;10601;51.830;7.294;2022-07-15T16:25:05;23.90;1.00
20883;DHT22;10601;51.830;7.294;2022-07-15T16:27:31;24.00;1.00
20883;DHT22;10601;51.830;7.294;2022-07-15T16:29:57;24.20;1.00
20883;DHT22;10601;51.830;7.294;2022-07-15T16:32:23;24.40;1.00
20883;DHT22;10601;51.830;7.294;2022-07-15T16:34:49;24.70;1.00
20883;DHT22;10601;51.830;7.294;2022-07-15T16:37:16;24.80;1.00
20883;DHT22;10601;51.830;7.294;2022-07-15T16:39:42;24.80;1.00